createdAt,value
2018-10-17T00:00:48.948Z,20.30
2018-10-17T00:03:17.204Z,20.30
2018-10-17T00:05:45.484Z,20.30
2018-10-17T00:08:13.788Z,20.20
2018-10-17T00:10:42.031Z,20.20
2018-10-17T00:13:10.323Z,20.10
2018-10-17T00:15:38.874Z,20.10
2018-10-17T00:18:07.121Z,20.00
2018-10-17T00:20:35.501Z,20.00
2018-10-17T00:23:03.854Z,20.10
2018-10-17T00:25:32.056Z,20.20
2018-10-17T00:28:00.384Z,20.20
2018-10-17T00:30:28.653Z,20.10
2018-10-17T00:32:56.878Z,20.20
2018-10-17T00:35:25.199Z,20.10
2018-10-17T00:37:53.433Z,20.00
2018-10-17T00:40:23.822Z,19.90
2018-10-17T00:42:52.889Z,19.90
2018-10-17T00:45:21.183Z,19.90
2018-10-17T00:47:49.418Z,19.80
2018-10-17T00:50:17.704Z,19.90
2018-10-17T00:52:46.052Z,19.90
2018-10-17T00:55:14.459Z,19.90
2018-10-17T00:57:42.637Z,19.90
2018-10-17T01:00:10.896Z,19.90
2018-10-17T01:02:39.114Z,19.90
2018-10-17T01:05:07.504Z,19.80
2018-10-17T01:07:35.849Z,19.70
2018-10-17T01:10:04.382Z,19.70
2018-10-17T01:12:32.769Z,19.60
2018-10-17T01:15:01.076Z,19.70
2018-10-17T01:17:29.334Z,19.60
2018-10-17T01:19:57.589Z,19.40
2018-10-17T01:22:25.804Z,19.40
2018-10-17T01:24:54.183Z,19.30
2018-10-17T01:27:22.384Z,19.20
2018-10-17T01:29:50.605Z,19.10
2018-10-17T01:32:18.862Z,19.00
2018-10-17T01:34:47.132Z,19.00
2018-10-17T01:37:15.581Z,19.00
2018-10-17T01:39:43.775Z,18.80
2018-10-17T01:42:12.007Z,18.90
2018-10-17T01:44:40.696Z,18.70
2018-10-17T01:47:09.142Z,18.50
2018-10-17T01:49:37.388Z,18.60
2018-10-17T01:52:05.684Z,18.40
2018-10-17T01:54:33.952Z,18.40
2018-10-17T01:57:02.229Z,18.30
2018-10-17T01:59:30.464Z,18.30
2018-10-17T02:01:58.761Z,18.20
2018-10-17T02:04:26.993Z,18.20
2018-10-17T02:06:55.299Z,18.20
2018-10-17T02:09:23.608Z,18.30
2018-10-17T02:11:51.896Z,18.20
2018-10-17T02:14:20.163Z,18.20
2018-10-17T02:16:48.404Z,18.10
2018-10-17T02:19:16.625Z,18.10
2018-10-17T02:21:44.916Z,18.00
2018-10-17T02:24:13.202Z,18.00
2018-10-17T02:26:41.529Z,17.90
2018-10-17T02:29:09.852Z,18.00
2018-10-17T02:31:38.000Z,17.90
2018-10-17T02:34:06.314Z,17.90
2018-10-17T02:36:34.617Z,17.70
2018-10-17T02:39:02.857Z,17.80
2018-10-17T02:41:31.170Z,17.80
2018-10-17T02:43:59.441Z,17.90
2018-10-17T02:46:27.659Z,17.80
2018-10-17T02:48:55.878Z,17.60
2018-10-17T02:51:24.118Z,17.50
2018-10-17T02:53:52.347Z,17.60
2018-10-17T02:56:20.682Z,17.70
2018-10-17T02:58:48.957Z,17.80
2018-10-17T03:01:17.327Z,17.80
2018-10-17T03:03:45.454Z,17.90
2018-10-17T03:06:13.818Z,17.90
2018-10-17T03:08:42.046Z,17.90
2018-10-17T03:11:10.652Z,17.90
2018-10-17T03:13:38.820Z,18.00
2018-10-17T03:16:07.075Z,17.80
2018-10-17T03:18:35.328Z,17.70
2018-10-17T03:21:03.555Z,17.70
2018-10-17T03:23:31.863Z,17.80
2018-10-17T03:26:00.205Z,17.70
2018-10-17T03:28:28.491Z,17.70
2018-10-17T03:30:56.833Z,17.60
2018-10-17T03:33:25.038Z,17.60
2018-10-17T03:35:53.355Z,17.70
2018-10-17T03:38:21.589Z,17.80
2018-10-17T03:40:49.829Z,17.80
2018-10-17T03:43:18.197Z,17.70
2018-10-17T03:45:46.418Z,17.80
2018-10-17T03:48:14.695Z,17.80
2018-10-17T03:50:42.966Z,17.80
2018-10-17T03:53:11.239Z,17.70
2018-10-17T03:55:39.530Z,17.70
2018-10-17T03:58:07.741Z,17.60
2018-10-17T04:00:35.958Z,17.70
2018-10-17T04:03:04.245Z,17.70
2018-10-17T04:05:32.513Z,17.70
2018-10-17T04:08:01.351Z,17.80
2018-10-17T04:10:29.638Z,17.70
2018-10-17T04:12:57.936Z,17.70
2018-10-17T04:15:26.246Z,17.70
2018-10-17T04:17:54.521Z,17.70
2018-10-17T04:20:22.785Z,17.60
2018-10-17T04:22:57.618Z,17.70
2018-10-17T04:25:26.101Z,17.80
2018-10-17T04:27:55.239Z,17.70
2018-10-17T04:30:23.592Z,17.70
2018-10-17T04:32:51.850Z,17.80
2018-10-17T04:35:20.230Z,17.80
2018-10-17T04:37:48.373Z,17.90
2018-10-17T04:40:16.631Z,17.90
2018-10-17T04:42:44.901Z,18.10
2018-10-17T04:45:13.181Z,18.10
2018-10-17T04:47:41.495Z,18.10
2018-10-17T04:50:10.957Z,18.20
2018-10-17T04:52:39.779Z,18.30
2018-10-17T04:55:08.994Z,18.30
2018-10-17T04:57:37.258Z,18.30
2018-10-17T05:00:07.663Z,18.10
2018-10-17T05:02:35.958Z,18.30
2018-10-17T05:05:04.278Z,18.20
2018-10-17T05:07:32.497Z,18.10
2018-10-17T05:10:00.725Z,18.10
2018-10-17T05:12:28.998Z,18.10
2018-10-17T05:14:57.273Z,18.30
2018-10-17T05:17:25.710Z,18.20
2018-10-17T05:19:53.973Z,18.20
2018-10-17T05:22:22.293Z,18.20
2018-10-17T05:24:50.523Z,18.10
2018-10-17T05:27:18.850Z,18.10
2018-10-17T05:29:47.255Z,18.00
2018-10-17T05:32:15.457Z,17.80
2018-10-17T05:34:43.703Z,17.70
2018-10-17T05:37:12.120Z,17.50
2018-10-17T05:39:40.272Z,17.40
2018-10-17T05:42:08.579Z,17.60
2018-10-17T05:44:36.911Z,17.40
2018-10-17T05:47:05.381Z,17.50
2018-10-17T05:49:33.697Z,17.50
2018-10-17T05:52:01.962Z,17.40
2018-10-17T05:54:30.207Z,17.40
2018-10-17T05:56:58.430Z,17.40
2018-10-17T05:59:26.825Z,17.60
2018-10-17T06:01:55.446Z,17.60
2018-10-17T06:04:23.709Z,17.60
2018-10-17T06:06:52.014Z,17.60
2018-10-17T06:09:20.341Z,17.60
2018-10-17T06:11:48.582Z,17.70
2018-10-17T06:14:17.524Z,17.80
2018-10-17T06:16:46.560Z,17.90
2018-10-17T06:19:15.023Z,17.90
2018-10-17T06:21:43.264Z,17.90
2018-10-17T06:24:11.572Z,17.90
2018-10-17T06:26:39.789Z,17.90
2018-10-17T06:29:08.108Z,17.90
2018-10-17T06:31:36.462Z,18.10
2018-10-17T06:34:04.877Z,18.30
2018-10-17T06:36:33.029Z,18.30
2018-10-17T06:39:01.325Z,18.20
2018-10-17T06:41:29.647Z,18.10
2018-10-17T06:43:57.955Z,18.20
2018-10-17T06:46:26.259Z,18.20
2018-10-17T06:48:54.565Z,18.30
2018-10-17T06:51:22.858Z,18.50
2018-10-17T06:53:51.268Z,18.50
2018-10-17T06:56:19.486Z,18.50
2018-10-17T06:58:47.928Z,18.30
2018-10-17T07:01:16.299Z,18.30
2018-10-17T07:03:44.503Z,18.30
2018-10-17T07:06:12.896Z,18.40
2018-10-17T07:08:41.149Z,18.50
2018-10-17T07:11:09.493Z,18.50
2018-10-17T07:13:37.738Z,18.60
2018-10-17T07:16:06.015Z,18.90
2018-10-17T07:18:34.289Z,19.00
2018-10-17T07:21:02.520Z,19.10
2018-10-17T07:23:30.781Z,18.70
2018-10-17T07:25:59.077Z,18.70
2018-10-17T07:28:27.391Z,18.90
2018-10-17T07:30:55.692Z,18.90
2018-10-17T07:33:23.934Z,19.10
2018-10-17T07:35:52.358Z,19.30
2018-10-17T07:38:20.729Z,19.60
2018-10-17T07:40:49.074Z,19.70
2018-10-17T07:43:17.294Z,19.90
2018-10-17T07:45:45.702Z,19.90
2018-10-17T07:48:13.955Z,20.00
2018-10-17T07:50:42.118Z,20.20
2018-10-17T07:53:10.486Z,20.30
2018-10-17T07:55:38.646Z,20.70
2018-10-17T07:58:07.007Z,20.70
2018-10-17T08:00:35.300Z,20.80
2018-10-17T08:03:03.781Z,20.90
2018-10-17T08:05:32.122Z,20.90
2018-10-17T08:08:00.487Z,21.10
2018-10-17T08:10:28.843Z,21.40
2018-10-17T08:12:57.069Z,21.60
2018-10-17T08:15:25.372Z,21.80
2018-10-17T08:17:53.590Z,21.60
2018-10-17T08:20:21.895Z,21.60
2018-10-17T08:22:50.206Z,22.30
2018-10-17T08:25:18.493Z,22.50
2018-10-17T08:27:46.757Z,22.80
2018-10-17T08:30:15.103Z,22.80
2018-10-17T08:32:43.305Z,22.20
2018-10-17T08:35:11.592Z,22.50
2018-10-17T08:37:40.230Z,23.10
2018-10-17T08:40:08.337Z,23.10
2018-10-17T08:42:36.617Z,23.10
2018-10-17T08:45:05.390Z,23.80
2018-10-17T08:47:33.614Z,24.20
2018-10-17T08:50:01.923Z,24.60
2018-10-17T08:52:30.174Z,25.40
2018-10-17T08:54:58.442Z,26.00
2018-10-17T08:57:26.686Z,26.00
2018-10-17T08:59:54.886Z,25.80
2018-10-17T09:02:23.114Z,26.70
2018-10-17T09:04:51.402Z,27.10
2018-10-17T09:07:19.640Z,27.20
2018-10-17T09:09:47.962Z,27.00
2018-10-17T09:12:16.419Z,26.20
2018-10-17T09:14:44.618Z,26.60
2018-10-17T09:17:12.973Z,27.20
2018-10-17T09:19:41.450Z,26.50
2018-10-17T09:22:09.833Z,26.50
2018-10-17T09:24:37.707Z,27.00
2018-10-17T09:27:05.945Z,26.60
2018-10-17T09:29:34.670Z,26.80
2018-10-17T09:32:03.048Z,27.30
2018-10-17T09:34:31.293Z,27.70
2018-10-17T09:36:59.566Z,28.00
2018-10-17T09:39:27.797Z,28.20
2018-10-17T09:41:56.093Z,27.20
2018-10-17T09:44:24.343Z,27.00
2018-10-17T09:46:52.777Z,27.60
2018-10-17T09:49:21.084Z,28.00
2018-10-17T09:51:49.434Z,28.20
2018-10-17T09:54:17.860Z,27.60
2018-10-17T09:56:45.874Z,27.50
2018-10-17T09:59:14.158Z,26.80
2018-10-17T10:01:50.704Z,25.90
2018-10-17T10:04:19.416Z,25.40
2018-10-17T10:06:48.242Z,25.90
2018-10-17T10:09:16.599Z,25.60
2018-10-17T10:11:44.844Z,25.60
2018-10-17T10:14:13.077Z,25.90
2018-10-17T10:16:41.319Z,26.30
2018-10-17T10:19:09.958Z,26.40
2018-10-17T10:21:38.465Z,26.70
2018-10-17T10:24:08.689Z,27.40
2018-10-17T10:26:37.826Z,28.00
2018-10-17T10:29:06.529Z,28.10
2018-10-17T10:31:34.843Z,28.50
2018-10-17T10:34:03.227Z,27.40
2018-10-17T10:36:31.420Z,27.20
2018-10-17T10:38:59.751Z,27.20
2018-10-17T10:41:28.101Z,27.40
2018-10-17T10:43:56.670Z,27.40
2018-10-17T10:46:24.905Z,26.60
2018-10-17T10:48:53.231Z,26.40
2018-10-17T10:51:21.525Z,26.30
2018-10-17T10:53:49.744Z,25.90
2018-10-17T10:56:18.147Z,25.30
2018-10-17T10:58:46.384Z,25.10
2018-10-17T11:01:14.522Z,25.20
2018-10-17T11:03:42.779Z,25.20
2018-10-17T11:06:10.983Z,25.50
2018-10-17T11:08:39.242Z,25.90
2018-10-17T11:11:07.516Z,25.70
2018-10-17T11:13:35.730Z,25.40
2018-10-17T11:16:04.107Z,25.90
2018-10-17T11:18:32.416Z,25.80
2018-10-17T11:21:00.819Z,25.70
2018-10-17T11:23:29.066Z,25.50
2018-10-17T11:25:57.776Z,25.70
2018-10-17T11:28:26.025Z,25.60
2018-10-17T11:31:01.045Z,26.00
2018-10-17T11:33:29.325Z,26.50
2018-10-17T11:35:57.590Z,27.00
2018-10-17T11:38:25.837Z,27.10
2018-10-17T11:40:54.115Z,27.30
2018-10-17T11:43:23.175Z,26.00
2018-10-17T11:45:51.379Z,26.00
2018-10-17T11:48:19.606Z,25.70
2018-10-17T11:50:47.922Z,25.90
2018-10-17T11:53:16.302Z,26.00
2018-10-17T11:55:44.465Z,25.60
2018-10-17T11:58:12.791Z,25.30
2018-10-17T12:00:41.048Z,25.20
2018-10-17T12:03:09.395Z,25.10
2018-10-17T12:05:37.848Z,25.30
2018-10-17T12:08:06.035Z,25.30
2018-10-17T12:10:34.265Z,25.40
2018-10-17T12:13:02.846Z,24.60
2018-10-17T12:15:31.345Z,23.80
2018-10-17T12:17:59.736Z,23.70
2018-10-17T12:20:27.946Z,24.30
2018-10-17T12:22:56.150Z,24.60
2018-10-17T12:25:24.397Z,24.60
2018-10-17T12:27:52.789Z,24.80
2018-10-17T12:30:21.017Z,24.70
2018-10-17T12:32:49.326Z,24.20
2018-10-17T12:35:17.837Z,24.30
2018-10-17T12:37:46.011Z,24.30
2018-10-17T12:40:14.354Z,24.50
2018-10-17T12:42:42.602Z,24.10
2018-10-17T12:45:10.996Z,23.40
2018-10-17T12:47:39.287Z,23.30
2018-10-17T12:50:08.648Z,22.70
2018-10-17T12:52:37.060Z,23.60
2018-10-17T12:55:06.080Z,23.70
2018-10-17T12:57:34.349Z,23.80
2018-10-17T13:00:02.685Z,23.90
2018-10-17T13:02:30.850Z,23.60
2018-10-17T13:04:59.154Z,23.90
2018-10-17T13:07:27.530Z,23.80
2018-10-17T13:09:55.810Z,23.00
2018-10-17T13:12:24.205Z,22.80
2018-10-17T13:14:52.606Z,22.90
2018-10-17T13:17:20.809Z,23.00
2018-10-17T13:19:49.122Z,22.70
2018-10-17T13:22:17.391Z,22.70
2018-10-17T13:24:45.741Z,22.50
2018-10-17T13:27:13.958Z,22.50
2018-10-17T13:29:42.213Z,22.30
2018-10-17T13:32:10.572Z,22.60
2018-10-17T13:34:38.827Z,22.30
2018-10-17T13:37:07.625Z,22.10
2018-10-17T13:39:35.906Z,22.30
2018-10-17T13:42:04.296Z,23.00
2018-10-17T13:44:32.603Z,23.10
2018-10-17T13:47:01.130Z,23.00
2018-10-17T13:49:29.391Z,23.00
2018-10-17T13:51:57.648Z,22.30
2018-10-17T13:54:25.944Z,22.40
2018-10-17T13:56:54.196Z,22.30
2018-10-17T13:59:22.630Z,22.70
2018-10-17T14:01:50.983Z,22.70
2018-10-17T14:04:19.418Z,22.70
2018-10-17T14:06:47.705Z,22.10
2018-10-17T14:09:16.068Z,21.80
2018-10-17T14:11:44.407Z,22.00
2018-10-17T14:16:40.853Z,21.70
2018-10-17T14:19:09.096Z,21.70
2018-10-17T14:21:37.509Z,21.60
2018-10-17T14:24:05.792Z,21.60
2018-10-17T14:26:34.057Z,21.90
2018-10-17T14:29:02.347Z,22.10
2018-10-17T14:31:30.807Z,22.30
2018-10-17T14:33:59.269Z,22.50
2018-10-17T14:36:27.724Z,22.30
2018-10-17T14:38:56.715Z,22.20
2018-10-17T14:41:25.038Z,22.20
2018-10-17T14:43:53.497Z,22.20
2018-10-17T14:46:22.313Z,22.10
2018-10-17T14:48:50.934Z,22.20
2018-10-17T14:51:19.417Z,22.20
2018-10-17T14:53:47.739Z,22.30
2018-10-17T14:56:16.086Z,22.20
2018-10-17T14:58:44.411Z,21.80
2018-10-17T15:01:17.214Z,21.70
2018-10-17T15:03:45.510Z,21.50
2018-10-17T15:06:13.850Z,21.70
2018-10-17T15:08:42.163Z,21.50
2018-10-17T15:11:10.671Z,21.40
2018-10-17T15:13:38.805Z,21.70
2018-10-17T15:16:07.189Z,21.60
2018-10-17T15:18:35.637Z,21.60
2018-10-17T15:21:04.047Z,21.30
2018-10-17T15:23:32.373Z,21.60
2018-10-17T15:26:00.717Z,21.70
2018-10-17T15:28:29.054Z,21.50
2018-10-17T15:30:57.300Z,21.80
2018-10-17T15:33:25.544Z,21.80
2018-10-17T15:35:53.876Z,21.80
2018-10-17T15:38:22.265Z,21.40
2018-10-17T15:40:50.539Z,21.50
2018-10-17T15:43:18.873Z,21.70
2018-10-17T15:45:47.167Z,21.30
2018-10-17T15:48:15.471Z,21.00
2018-10-17T15:50:43.656Z,20.80
2018-10-17T15:53:12.025Z,20.70
2018-10-17T15:55:40.195Z,20.90
2018-10-17T15:58:08.689Z,20.50
2018-10-17T16:00:37.013Z,20.50
2018-10-17T16:03:05.474Z,20.40
2018-10-17T16:05:33.834Z,20.60
2018-10-17T16:08:02.210Z,20.70
2018-10-17T16:10:30.450Z,20.50
2018-10-17T16:12:58.777Z,20.50
2018-10-17T16:15:27.027Z,20.30
2018-10-17T16:17:55.499Z,20.30
2018-10-17T16:20:23.796Z,20.10
2018-10-17T16:22:52.167Z,20.10
2018-10-17T16:25:20.442Z,20.00
2018-10-17T16:27:48.683Z,20.30
2018-10-17T16:30:17.077Z,20.40
2018-10-17T16:32:45.336Z,20.30
2018-10-17T16:35:13.639Z,20.20
2018-10-17T16:37:41.925Z,20.40
2018-10-17T16:40:10.450Z,20.50
2018-10-17T16:42:38.764Z,20.10
2018-10-17T16:45:08.189Z,20.00
2018-10-17T16:47:36.632Z,19.80
2018-10-17T16:52:33.192Z,19.70
2018-10-17T16:55:01.546Z,19.60
2018-10-17T16:57:29.751Z,19.60
2018-10-17T16:59:58.140Z,19.70
2018-10-17T17:02:26.393Z,19.70
2018-10-17T17:04:54.757Z,19.70
2018-10-17T17:07:23.110Z,19.60
2018-10-17T17:09:51.353Z,19.50
2018-10-17T17:12:19.793Z,19.60
2018-10-17T17:22:12.164Z,19.60
2018-10-17T17:24:40.526Z,19.50
2018-10-17T17:27:08.979Z,19.50
2018-10-17T17:29:37.463Z,19.50
2018-10-17T17:32:06.128Z,19.30
2018-10-17T17:34:34.434Z,19.40
2018-10-17T17:37:02.772Z,19.40
2018-10-17T17:39:31.273Z,19.50
2018-10-17T17:41:59.627Z,19.50
2018-10-17T17:44:28.297Z,19.20
2018-10-17T17:46:56.631Z,19.20
2018-10-17T17:49:24.921Z,19.20
2018-10-17T17:51:53.226Z,19.30
2018-10-17T17:54:21.499Z,19.20
2018-10-17T17:56:49.849Z,19.00
2018-10-17T17:59:18.135Z,18.80
2018-10-17T18:01:46.445Z,18.80
2018-10-17T18:04:14.709Z,18.80
2018-10-17T18:06:43.250Z,18.80
2018-10-17T18:09:12.663Z,18.80
2018-10-17T18:11:41.029Z,18.70
2018-10-17T18:14:09.324Z,18.80
2018-10-17T18:16:37.550Z,18.90
2018-10-17T18:19:05.878Z,18.50
2018-10-17T18:21:34.321Z,18.40
2018-10-17T18:24:02.682Z,18.50
2018-10-17T18:26:30.979Z,18.70
2018-10-17T18:28:59.323Z,18.60
2018-10-17T18:31:28.132Z,18.60
2018-10-17T18:33:56.494Z,18.70
2018-10-17T18:36:24.802Z,18.70
2018-10-17T18:38:53.333Z,18.60
2018-10-17T18:41:21.578Z,18.60
2018-10-17T18:43:52.750Z,18.50
2018-10-17T18:46:21.031Z,18.60
2018-10-17T18:48:49.277Z,18.60
2018-10-17T18:51:17.560Z,18.60
2018-10-17T18:53:45.894Z,18.50
2018-10-17T18:56:14.287Z,18.50
2018-10-17T18:58:42.479Z,18.60
2018-10-17T19:01:10.807Z,18.40
2018-10-17T19:03:39.046Z,18.20
2018-10-17T19:06:07.409Z,18.30
2018-10-17T19:08:35.750Z,18.20
2018-10-17T19:11:04.192Z,18.20
2018-10-17T19:16:07.417Z,18.60
2018-10-17T19:18:35.687Z,18.30
2018-10-17T19:21:04.033Z,18.40
2018-10-17T19:23:32.361Z,18.20
2018-10-17T19:26:00.721Z,18.20
2018-10-17T19:28:29.098Z,18.30
2018-10-17T19:30:57.369Z,18.40
2018-10-17T19:33:25.603Z,18.40
2018-10-17T19:35:54.043Z,18.60
2018-10-17T19:38:22.319Z,18.20
2018-10-17T19:40:50.611Z,18.00
2018-10-17T19:43:18.984Z,17.80
2018-10-17T19:45:47.214Z,18.00
2018-10-17T19:48:15.478Z,17.90
2018-10-17T19:50:43.885Z,17.80
2018-10-17T19:53:12.177Z,18.10
2018-10-17T19:55:40.492Z,17.80
2018-10-17T19:58:08.893Z,17.90
2018-10-17T20:00:37.197Z,18.10
2018-10-17T20:03:06.085Z,18.00
2018-10-17T20:05:34.309Z,18.00
2018-10-17T20:08:02.653Z,17.70
2018-10-17T20:10:30.924Z,17.70
2018-10-17T20:12:59.242Z,17.80
2018-10-17T20:15:27.565Z,17.80
2018-10-17T20:17:55.831Z,17.80
2018-10-17T20:20:24.139Z,17.80
2018-10-17T20:22:52.361Z,17.60
2018-10-17T20:25:20.618Z,17.70
2018-10-17T20:27:48.846Z,17.60
2018-10-17T20:30:17.138Z,17.70
2018-10-17T20:32:45.421Z,17.70
2018-10-17T20:35:14.167Z,17.70
2018-10-17T20:37:42.522Z,17.50
2018-10-17T20:40:10.912Z,17.60
2018-10-17T20:42:39.173Z,17.60
2018-10-17T20:45:07.702Z,17.50
2018-10-17T20:47:35.997Z,17.50
2018-10-17T20:50:04.735Z,17.60
2018-10-17T20:52:33.104Z,17.50
2018-10-17T20:55:01.386Z,17.50
2018-10-17T20:57:29.684Z,17.50
2018-10-17T20:59:57.933Z,17.50
2018-10-17T21:02:26.280Z,17.50
2018-10-17T21:04:54.574Z,17.70
2018-10-17T21:07:22.866Z,17.50
2018-10-17T21:09:51.203Z,17.50
2018-10-17T21:12:19.481Z,17.50
2018-10-17T21:14:47.856Z,17.30
2018-10-17T21:17:17.295Z,17.30
2018-10-17T21:19:45.597Z,17.30
2018-10-17T21:22:13.893Z,17.30
2018-10-17T21:24:42.153Z,17.30
2018-10-17T21:27:10.414Z,17.40
2018-10-17T21:29:38.649Z,17.30
2018-10-17T21:32:07.067Z,17.30
2018-10-17T21:34:35.305Z,17.30
2018-10-17T21:37:03.700Z,17.40
2018-10-17T21:39:32.207Z,17.40
2018-10-17T21:42:00.417Z,17.20
2018-10-17T21:44:28.688Z,17.30
2018-10-17T21:46:56.963Z,17.40
2018-10-17T21:49:25.170Z,17.30
2018-10-17T21:51:53.437Z,17.20
2018-10-17T21:54:21.713Z,17.20
2018-10-17T21:56:50.082Z,17.20
2018-10-17T21:59:18.369Z,17.10
2018-10-17T22:01:46.927Z,17.10
2018-10-17T22:04:15.178Z,17.10
2018-10-17T22:06:43.454Z,17.20
2018-10-17T22:09:12.002Z,17.20
2018-10-17T22:11:40.235Z,17.20
2018-10-17T22:14:08.536Z,17.20
2018-10-17T22:16:42.175Z,17.30
2018-10-17T22:19:10.557Z,17.20
2018-10-17T22:21:38.778Z,17.10
2018-10-17T22:24:07.162Z,17.00
2018-10-17T22:26:35.397Z,16.90
2018-10-17T22:29:03.745Z,17.00
2018-10-17T22:31:32.047Z,16.80
2018-10-17T22:34:00.378Z,16.90
2018-10-17T22:36:28.657Z,17.10
2018-10-17T22:38:56.977Z,17.00
2018-10-17T22:41:25.291Z,17.00
2018-10-17T22:43:53.579Z,17.10
2018-10-17T22:46:21.858Z,16.90
2018-10-17T22:48:50.097Z,16.80
2018-10-17T22:51:18.347Z,16.80
2018-10-17T22:53:46.565Z,16.60
2018-10-17T22:56:14.890Z,16.70
2018-10-17T22:58:43.089Z,16.60
2018-10-17T23:01:11.341Z,16.70
2018-10-17T23:03:39.597Z,16.70
2018-10-17T23:06:07.817Z,16.70
2018-10-17T23:08:36.076Z,16.50
2018-10-17T23:11:04.898Z,16.50
2018-10-17T23:13:33.194Z,16.50
2018-10-17T23:16:01.440Z,16.40
2018-10-17T23:18:29.692Z,16.30
2018-10-17T23:20:57.971Z,16.40
2018-10-17T23:23:26.213Z,16.30
2018-10-17T23:25:54.465Z,16.20
2018-10-17T23:28:22.830Z,16.30
2018-10-17T23:30:51.107Z,16.40
2018-10-17T23:33:19.457Z,16.20
2018-10-17T23:35:47.745Z,16.10
2018-10-17T23:38:16.176Z,16.00
2018-10-17T23:40:44.289Z,16.00
2018-10-17T23:43:12.559Z,16.00
2018-10-17T23:45:40.789Z,16.10
2018-10-17T23:48:09.728Z,16.00
2018-10-17T23:50:38.403Z,15.90
2018-10-17T23:53:07.665Z,15.80
2018-10-17T23:55:35.992Z,15.90
2018-10-17T23:58:04.544Z,16.00
